createdAt,value
2022-11-18T00:01:36.862Z,1.83
2022-11-18T00:04:39.222Z,2.20
2022-11-18T00:07:41.387Z,2.15
2022-11-18T00:10:43.545Z,2.25
2022-11-18T00:14:04.458Z,2.30
2022-11-18T00:17:06.811Z,1.52
2022-11-18T00:20:09.207Z,2.20
2022-11-18T00:23:12.143Z,1.20
2022-11-18T00:26:14.631Z,1.95
2022-11-18T00:29:17.287Z,1.63
2022-11-18T00:32:19.542Z,1.45
2022-11-18T00:35:21.648Z,1.35
2022-11-18T00:38:24.449Z,1.10
2022-11-18T00:41:46.483Z,1.50
2022-11-18T00:44:48.605Z,1.23
2022-11-18T00:47:50.691Z,1.52
2022-11-18T00:50:55.626Z,1.10
2022-11-18T00:53:57.730Z,1.13
2022-11-18T00:57:00.001Z,1.10
2022-11-18T01:00:02.054Z,0.98
2022-11-18T01:03:04.270Z,0.80
2022-11-18T01:06:06.398Z,0.73
2022-11-18T01:09:08.594Z,1.00
2022-11-18T01:12:54.066Z,0.65
2022-11-18T01:15:58.010Z,0.80
2022-11-18T01:19:00.065Z,1.23
2022-11-18T01:22:03.381Z,0.90
2022-11-18T01:25:05.813Z,1.50
2022-11-18T01:28:07.882Z,1.27
2022-11-18T01:31:12.742Z,1.30
2022-11-18T01:34:14.784Z,1.40
2022-11-18T01:37:16.904Z,1.25
2022-11-18T01:40:19.062Z,1.25
2022-11-18T01:43:21.797Z,1.33
2022-11-18T01:46:26.062Z,1.40
2022-11-18T01:49:28.102Z,1.35
2022-11-18T01:52:30.283Z,1.30
2022-11-18T01:55:35.044Z,1.25
2022-11-18T01:58:41.366Z,1.60
2022-11-18T02:01:43.447Z,1.25
2022-11-18T02:04:48.574Z,0.98
2022-11-18T02:07:50.638Z,0.88
2022-11-18T02:10:52.706Z,0.73
2022-11-18T02:13:54.754Z,0.98
2022-11-18T02:17:27.603Z,0.77
2022-11-18T02:20:39.336Z,0.60
2022-11-18T02:24:21.007Z,0.60
2022-11-18T02:27:49.313Z,0.50
2022-11-18T02:31:00.972Z,0.40
2022-11-18T02:34:34.213Z,0.50
2022-11-18T02:37:54.632Z,0.40
2022-11-18T02:41:04.007Z,0.40
2022-11-18T02:44:12.423Z,0.50
2022-11-18T02:47:14.929Z,0.40
2022-11-18T02:50:21.331Z,0.35
2022-11-18T02:53:23.411Z,0.50
2022-11-18T02:56:25.686Z,0.50
2022-11-18T02:59:28.977Z,0.50
2022-11-18T03:02:44.701Z,0.55
2022-11-18T03:06:22.266Z,0.50
2022-11-18T03:09:30.021Z,0.35
2022-11-18T03:12:40.831Z,0.50
2022-11-18T03:16:03.968Z,0.88
2022-11-18T03:19:13.766Z,0.50
2022-11-18T03:22:44.771Z,0.50
2022-11-18T03:26:16.247Z,0.50
2022-11-18T03:29:47.115Z,0.57
2022-11-18T03:33:04.783Z,0.50
2022-11-18T03:36:08.345Z,0.40
2022-11-18T03:39:10.745Z,0.40
2022-11-18T03:42:41.660Z,0.30
2022-11-18T03:45:49.575Z,0.30
2022-11-18T03:48:54.392Z,0.50
2022-11-18T03:52:00.903Z,0.50
2022-11-18T03:55:07.991Z,0.60
2022-11-18T03:58:51.095Z,0.47
2022-11-18T04:02:00.136Z,0.38
2022-11-18T04:05:03.902Z,0.40
2022-11-18T04:08:15.831Z,0.20
2022-11-18T04:11:41.121Z,0.30
2022-11-18T04:14:44.778Z,0.20
2022-11-18T04:17:46.873Z,0.20
2022-11-18T04:20:48.932Z,0.20
2022-11-18T04:23:56.019Z,0.20
2022-11-18T04:26:58.097Z,0.30
2022-11-18T04:30:00.136Z,0.38
2022-11-18T04:33:07.226Z,0.55
2022-11-18T04:36:09.670Z,0.40
2022-11-18T04:39:11.838Z,0.40
2022-11-18T04:42:13.906Z,0.82
2022-11-18T04:45:16.042Z,0.45
2022-11-18T04:48:19.233Z,0.20
2022-11-18T04:51:21.296Z,0.30
2022-11-18T04:54:23.873Z,0.32
2022-11-18T04:57:25.943Z,0.40
2022-11-18T05:00:28.085Z,0.20
2022-11-18T05:03:30.211Z,0.10
2022-11-18T05:06:32.742Z,0.20
2022-11-18T05:09:35.038Z,0.10
2022-11-18T05:12:49.644Z,0.15
2022-11-18T05:15:51.814Z,0.20
2022-11-18T05:18:53.984Z,0.20
2022-11-18T05:21:56.134Z,0.20
2022-11-18T05:24:58.234Z,0.20
2022-11-18T05:28:00.385Z,0.30
2022-11-18T05:31:13.987Z,0.20
2022-11-18T05:34:16.289Z,0.30
2022-11-18T05:37:18.404Z,0.30
2022-11-18T05:40:20.475Z,0.28
2022-11-18T05:43:22.543Z,0.22
2022-11-18T05:46:24.874Z,0.40
2022-11-18T05:49:26.923Z,0.30
2022-11-18T05:52:29.051Z,0.20
2022-11-18T05:55:42.379Z,0.35
2022-11-18T05:58:44.580Z,0.30
2022-11-18T06:01:55.455Z,0.40
2022-11-18T06:04:59.861Z,0.40
2022-11-18T06:08:01.895Z,0.30
2022-11-18T06:11:03.974Z,0.40
2022-11-18T06:14:14.124Z,0.30
2022-11-18T06:17:22.482Z,0.35
2022-11-18T06:20:24.610Z,0.30
2022-11-18T06:23:28.400Z,0.20
2022-11-18T06:26:30.494Z,0.20
2022-11-18T06:29:32.641Z,0.20
2022-11-18T06:32:34.734Z,0.32
2022-11-18T06:35:36.858Z,0.30
2022-11-18T06:38:39.113Z,0.40
2022-11-18T06:41:41.269Z,0.40
2022-11-18T06:44:43.368Z,0.40
2022-11-18T06:47:45.515Z,0.40
2022-11-18T06:50:47.587Z,0.40
2022-11-18T06:53:50.230Z,0.40
2022-11-18T06:56:52.393Z,0.40
2022-11-18T06:59:59.030Z,0.40
2022-11-18T07:03:02.999Z,0.30
2022-11-18T07:06:06.030Z,0.40
2022-11-18T07:09:08.303Z,0.30
2022-11-18T07:12:10.471Z,0.35
2022-11-18T07:15:12.590Z,0.40
2022-11-18T07:18:14.670Z,0.28
2022-11-18T07:21:21.987Z,0.40
2022-11-18T07:24:24.159Z,0.60
2022-11-18T07:27:26.239Z,0.30
2022-11-18T07:30:28.456Z,0.22
2022-11-18T07:33:31.452Z,0.30
2022-11-18T07:36:35.806Z,0.30
2022-11-18T07:39:38.358Z,0.30
2022-11-18T07:42:45.471Z,0.25
2022-11-18T07:45:59.575Z,0.40
2022-11-18T07:49:03.258Z,0.40
2022-11-18T07:52:15.470Z,0.30
2022-11-18T07:55:17.620Z,0.30
2022-11-18T07:58:19.686Z,0.40
2022-11-18T08:01:24.192Z,0.30
2022-11-18T08:04:26.288Z,0.50
2022-11-18T08:07:29.052Z,0.40
2022-11-18T08:10:31.343Z,0.30
2022-11-18T08:13:33.685Z,0.40
2022-11-18T08:16:35.743Z,0.40
2022-11-18T08:19:37.782Z,0.40
2022-11-18T08:22:39.926Z,0.50
2022-11-18T08:25:43.098Z,0.38
2022-11-18T08:28:45.405Z,0.40
2022-11-18T08:31:47.557Z,0.52
2022-11-18T08:34:51.133Z,0.55
2022-11-18T08:37:53.207Z,0.50
2022-11-18T08:40:55.259Z,0.40
2022-11-18T08:43:57.333Z,0.55
2022-11-18T08:46:59.430Z,0.50
2022-11-18T08:50:01.950Z,0.50
2022-11-18T08:53:04.002Z,0.50
2022-11-18T08:56:06.316Z,0.63
2022-11-18T08:59:08.976Z,0.60
2022-11-18T09:02:22.292Z,0.50
2022-11-18T09:05:24.337Z,0.50
2022-11-18T09:08:26.785Z,0.50
2022-11-18T09:11:28.886Z,0.50
2022-11-18T09:17:53.382Z,0.50
2022-11-18T09:21:04.308Z,0.47
2022-11-18T09:24:07.162Z,0.70
2022-11-18T09:27:15.204Z,0.70
2022-11-18T09:30:18.937Z,0.70
2022-11-18T09:33:21.786Z,0.70
2022-11-18T09:36:24.908Z,0.80
2022-11-18T09:39:26.975Z,0.70
2022-11-18T09:42:51.127Z,0.60
2022-11-18T09:45:58.529Z,0.40
2022-11-18T09:49:13.092Z,0.40
2022-11-18T09:52:23.865Z,0.60
2022-11-18T09:55:25.891Z,0.50
2022-11-18T09:58:34.333Z,0.50
2022-11-18T10:01:37.061Z,0.50
2022-11-18T10:04:39.232Z,0.30
2022-11-18T10:07:59.129Z,0.60
2022-11-18T10:11:08.296Z,0.50
2022-11-18T10:14:42.501Z,0.50
2022-11-18T10:17:51.376Z,0.40
2022-11-18T10:21:24.071Z,0.50
2022-11-18T10:24:30.577Z,0.50
2022-11-18T10:27:40.318Z,0.52
2022-11-18T10:30:42.393Z,0.40
2022-11-18T10:33:44.502Z,0.40
2022-11-18T10:37:14.391Z,0.40
2022-11-18T10:40:26.127Z,0.30
2022-11-18T10:43:54.990Z,0.30
2022-11-18T10:47:15.362Z,0.30
2022-11-18T10:50:28.579Z,0.30
2022-11-18T10:53:33.224Z,0.45
2022-11-18T10:57:04.957Z,0.20
2022-11-18T11:00:33.221Z,0.30
2022-11-18T11:03:38.780Z,0.30
2022-11-18T11:06:40.965Z,0.30
2022-11-18T11:09:43.561Z,0.20
2022-11-18T11:13:09.109Z,0.20
2022-11-18T11:16:11.286Z,0.17
2022-11-18T11:19:13.499Z,0.35
2022-11-18T11:22:15.696Z,0.30
2022-11-18T11:25:28.936Z,0.30
2022-11-18T11:29:05.984Z,0.30
2022-11-18T11:32:41.124Z,0.40
2022-11-18T11:36:22.492Z,0.43
2022-11-18T11:40:20.328Z,0.30
2022-11-18T11:43:38.090Z,0.40
2022-11-18T11:47:32.677Z,0.38
2022-11-18T11:51:03.369Z,0.30
2022-11-18T11:54:56.312Z,0.35
2022-11-18T11:58:23.296Z,0.30
2022-11-18T12:01:42.192Z,0.40
2022-11-18T12:04:52.475Z,0.28
2022-11-18T12:07:59.975Z,0.30
2022-11-18T12:11:21.745Z,0.40
2022-11-18T12:14:53.534Z,0.30
2022-11-18T12:18:33.437Z,0.20
2022-11-18T12:21:47.385Z,0.40
2022-11-18T12:24:49.614Z,0.20
2022-11-18T12:27:59.143Z,0.30
2022-11-18T12:31:19.663Z,0.30
2022-11-18T12:34:43.062Z,0.30
2022-11-18T12:37:57.877Z,0.35
2022-11-18T12:41:19.889Z,0.55
2022-11-18T12:44:26.502Z,0.20
2022-11-18T12:47:40.593Z,0.43
2022-11-18T12:51:15.489Z,0.70
2022-11-18T12:54:32.431Z,0.30
2022-11-18T12:57:34.641Z,0.90
2022-11-18T13:00:52.589Z,0.30
2022-11-18T13:04:12.471Z,0.28
2022-11-18T13:07:34.574Z,0.30
2022-11-18T13:10:50.351Z,0.30
2022-11-18T13:14:15.319Z,0.32
2022-11-18T13:17:54.735Z,0.30
2022-11-18T13:20:59.114Z,0.52
2022-11-18T13:24:01.320Z,0.30
2022-11-18T13:27:03.398Z,0.40
2022-11-18T13:30:11.150Z,0.30
2022-11-18T13:33:13.372Z,0.30
2022-11-18T13:36:20.395Z,0.35
2022-11-18T13:39:23.284Z,0.60
2022-11-18T13:42:30.400Z,0.20
2022-11-18T13:45:32.510Z,0.75
2022-11-18T13:48:34.617Z,0.35
2022-11-18T13:51:38.676Z,0.30
2022-11-18T13:54:40.862Z,5.80
2022-11-18T13:58:07.544Z,0.95
2022-11-18T14:01:19.597Z,0.30
2022-11-18T14:04:27.569Z,0.20
2022-11-18T14:07:33.068Z,0.30
2022-11-18T14:10:44.623Z,0.47
2022-11-18T14:13:52.213Z,0.30
2022-11-18T14:19:58.186Z,3.60
2022-11-18T14:23:01.433Z,0.30
2022-11-18T14:26:05.614Z,0.25
2022-11-18T14:29:22.926Z,1.75
2022-11-18T14:32:28.030Z,1.53
2022-11-18T14:35:33.524Z,0.30
2022-11-18T14:39:11.850Z,0.30
2022-11-18T14:42:12.915Z,0.20
2022-11-18T14:45:15.118Z,3.22
2022-11-18T14:48:19.793Z,0.30
2022-11-18T14:51:21.928Z,0.52
2022-11-18T14:54:27.626Z,0.30
2022-11-18T14:57:30.168Z,1.90
2022-11-18T15:00:32.652Z,0.30
2022-11-18T15:03:34.889Z,7.38
2022-11-18T15:06:37.180Z,0.30
2022-11-18T15:09:39.274Z,0.30
2022-11-18T15:12:41.361Z,0.20
2022-11-18T15:15:43.432Z,0.15
2022-11-18T15:18:48.118Z,0.30
2022-11-18T15:21:50.829Z,0.20
2022-11-18T15:24:52.914Z,0.20
2022-11-18T15:27:55.000Z,0.45
2022-11-18T15:30:57.079Z,0.20
2022-11-18T15:34:05.046Z,0.20
2022-11-18T15:37:12.313Z,0.20
2022-11-18T15:40:14.404Z,0.22
2022-11-18T15:43:17.899Z,0.10
2022-11-18T15:46:21.228Z,0.13
2022-11-18T15:49:23.411Z,0.22
2022-11-18T15:52:27.179Z,0.30
2022-11-18T15:55:29.209Z,0.20
2022-11-18T15:58:35.667Z,0.22
2022-11-18T16:01:40.364Z,0.20
2022-11-18T16:04:42.554Z,0.20
2022-11-18T16:07:44.941Z,0.28
2022-11-18T16:11:05.589Z,0.30
2022-11-18T16:14:10.399Z,0.30
2022-11-18T16:17:12.417Z,1.30
2022-11-18T16:20:14.598Z,1.20
2022-11-18T16:23:16.868Z,7.35
2022-11-18T16:26:18.926Z,5.25
2022-11-18T16:29:23.095Z,5.50
2022-11-18T16:32:25.891Z,3.92
2022-11-18T16:35:28.151Z,6.18
2022-11-18T16:38:30.169Z,8.52
2022-11-18T16:41:32.291Z,6.75
2022-11-18T16:44:34.963Z,3.80
2022-11-18T16:47:38.448Z,2.40
2022-11-18T16:50:40.706Z,0.90
2022-11-18T16:53:42.756Z,1.00
2022-11-18T16:56:45.256Z,1.13
2022-11-18T16:59:47.377Z,0.70
2022-11-18T17:02:49.464Z,0.60
2022-11-18T17:05:51.502Z,0.50
2022-11-18T17:08:53.582Z,0.40
2022-11-18T17:11:55.936Z,0.40
2022-11-18T17:14:57.962Z,0.50
2022-11-18T17:18:00.015Z,0.50
2022-11-18T17:21:06.794Z,0.45
2022-11-18T17:24:09.214Z,0.30
2022-11-18T17:27:11.245Z,0.40
2022-11-18T17:30:14.218Z,0.70
2022-11-18T17:33:16.245Z,0.70
2022-11-18T17:36:20.452Z,2.65
2022-11-18T17:39:22.510Z,7.47
2022-11-18T17:42:25.815Z,7.63
2022-11-18T17:45:27.886Z,7.90
2022-11-18T17:48:30.516Z,3.08
2022-11-18T17:51:32.652Z,3.20
2022-11-18T17:54:34.737Z,8.40
2022-11-18T17:57:36.773Z,28.98
2022-11-18T18:00:39.249Z,12.68
2022-11-18T18:03:41.517Z,22.65
2022-11-18T18:06:43.554Z,84.25
2022-11-18T18:09:45.614Z,77.97
2022-11-18T18:13:06.407Z,47.33
2022-11-18T18:16:08.484Z,100.18
2022-11-18T18:19:12.136Z,36.05
2022-11-18T18:22:14.182Z,50.30
2022-11-18T18:25:16.424Z,5.68
2022-11-18T18:28:18.518Z,61.42
2022-11-18T18:31:20.617Z,44.17
2022-11-18T18:34:22.767Z,11.10
2022-11-18T18:37:24.845Z,7.68
2022-11-18T18:40:26.892Z,9.98
2022-11-18T18:43:29.037Z,3.70
2022-11-18T18:46:33.794Z,4.72
2022-11-18T18:49:35.895Z,5.18
2022-11-18T18:52:37.985Z,6.75
2022-11-18T18:55:44.695Z,5.65
2022-11-18T18:58:47.341Z,5.50
2022-11-18T19:01:49.474Z,5.65
2022-11-18T19:04:52.858Z,5.20
2022-11-18T19:07:54.966Z,4.88
2022-11-18T19:10:57.058Z,7.78
2022-11-18T19:14:07.028Z,8.23
2022-11-18T19:17:12.158Z,6.03
2022-11-18T19:20:33.382Z,6.80
2022-11-18T19:23:35.451Z,6.00
2022-11-18T19:26:37.519Z,6.10
2022-11-18T19:29:39.590Z,7.85
2022-11-18T19:32:42.340Z,5.03
2022-11-18T19:35:44.366Z,8.15
2022-11-18T19:38:49.417Z,7.05
2022-11-18T19:41:51.446Z,4.55
2022-11-18T19:44:53.461Z,3.95
2022-11-18T19:47:55.618Z,19.65
2022-11-18T19:51:12.345Z,5.72
2022-11-18T19:54:14.384Z,5.07
2022-11-18T19:57:16.518Z,7.18
2022-11-18T20:00:19.280Z,5.80
2022-11-18T20:03:21.365Z,4.95
2022-11-18T20:06:24.383Z,5.22
2022-11-18T20:09:26.521Z,5.07
2022-11-18T20:12:29.727Z,4.60
2022-11-18T20:15:31.783Z,5.00
2022-11-18T20:18:33.888Z,5.20
2022-11-18T20:21:35.976Z,7.72
2022-11-18T20:24:38.038Z,14.65
2022-11-18T20:27:40.097Z,7.88
2022-11-18T20:30:42.334Z,8.93
2022-11-18T20:33:49.346Z,9.27
2022-11-18T20:36:54.530Z,9.30
2022-11-18T20:39:56.697Z,9.10
2022-11-18T20:43:14.283Z,6.38
2022-11-18T20:46:20.623Z,6.15
2022-11-18T20:49:23.188Z,5.43
2022-11-18T20:52:25.242Z,4.40
2022-11-18T20:55:27.350Z,4.70
2022-11-18T20:58:29.446Z,4.15
2022-11-18T21:01:33.026Z,3.13
2022-11-18T21:04:35.138Z,2.67
2022-11-18T21:07:37.271Z,2.47
2022-11-18T21:10:39.351Z,2.00
2022-11-18T21:14:00.448Z,1.88
2022-11-18T21:17:02.661Z,1.80
2022-11-18T21:20:25.719Z,1.85
2022-11-18T21:23:27.832Z,1.60
2022-11-18T21:26:31.653Z,1.13
2022-11-18T21:29:33.889Z,1.35
2022-11-18T21:32:35.925Z,0.90
2022-11-18T21:35:38.072Z,0.70
2022-11-18T21:38:40.157Z,0.80
2022-11-18T21:41:42.234Z,1.60
2022-11-18T21:44:44.250Z,1.55
2022-11-18T21:47:46.422Z,1.60
2022-11-18T21:50:48.446Z,1.52
2022-11-18T21:53:50.511Z,1.20
2022-11-18T21:56:53.705Z,0.90
2022-11-18T21:59:55.889Z,0.90
2022-11-18T22:02:57.934Z,1.00
2022-11-18T22:06:02.312Z,1.00
2022-11-18T22:09:06.193Z,0.70
2022-11-18T22:12:08.375Z,0.60
2022-11-18T22:15:11.266Z,0.50
2022-11-18T22:18:13.348Z,0.93
2022-11-18T22:21:17.862Z,0.70
2022-11-18T22:24:19.934Z,0.70
2022-11-18T22:27:21.982Z,0.70
2022-11-18T22:30:24.019Z,0.65
2022-11-18T22:33:26.058Z,0.82
2022-11-18T22:36:28.222Z,0.85
2022-11-18T22:39:30.290Z,0.80
2022-11-18T22:42:47.214Z,1.10
2022-11-18T22:45:49.244Z,1.08
2022-11-18T22:48:51.324Z,0.70
2022-11-18T22:51:53.373Z,0.80
2022-11-18T22:54:55.423Z,0.50
2022-11-18T22:57:57.457Z,0.57
2022-11-18T23:01:09.849Z,0.40
2022-11-18T23:04:11.912Z,0.50
2022-11-18T23:07:13.964Z,0.50
2022-11-18T23:10:16.075Z,0.40
2022-11-18T23:13:36.663Z,0.50
2022-11-18T23:16:41.431Z,0.43
2022-11-18T23:19:43.990Z,0.65
2022-11-18T23:22:46.187Z,0.77
2022-11-18T23:25:48.281Z,0.70
2022-11-18T23:28:50.518Z,0.70
2022-11-18T23:31:53.898Z,0.40
2022-11-18T23:34:55.965Z,0.57
2022-11-18T23:37:57.989Z,0.50
2022-11-18T23:41:06.234Z,0.60
2022-11-18T23:44:08.296Z,0.50
2022-11-18T23:47:10.338Z,0.47
2022-11-18T23:50:12.388Z,0.50
2022-11-18T23:53:14.443Z,0.50
2022-11-18T23:56:18.029Z,0.73
2022-11-18T23:59:20.244Z,0.80
